createdAt,value
2022-09-10T00:00:01.690Z,15.00
2022-09-10T00:02:33.102Z,15.10
2022-09-10T00:05:03.679Z,15.20
2022-09-10T00:07:34.354Z,15.20
2022-09-10T00:10:05.203Z,15.30
2022-09-10T00:12:37.128Z,15.40
2022-09-10T00:15:10.272Z,15.30
2022-09-10T00:17:40.939Z,15.30
2022-09-10T00:20:12.959Z,15.50
2022-09-10T00:22:43.551Z,15.70
2022-09-10T00:25:15.405Z,16.10
2022-09-10T00:27:45.924Z,16.20
2022-09-10T00:30:17.028Z,16.00
2022-09-10T00:32:49.147Z,15.80
2022-09-10T00:35:20.532Z,15.60
2022-09-10T00:37:51.144Z,15.30
2022-09-10T00:40:21.908Z,15.00
2022-09-10T00:42:52.420Z,14.90
2022-09-10T00:45:25.696Z,14.70
2022-09-10T00:47:59.624Z,14.70
2022-09-10T00:50:33.608Z,14.60
2022-09-10T00:53:07.215Z,14.50
2022-09-10T00:55:40.016Z,14.50
2022-09-10T00:58:13.703Z,14.40
2022-09-10T01:00:44.434Z,14.50
2022-09-10T01:03:21.466Z,14.60
2022-09-10T01:05:52.442Z,14.70
2022-09-10T01:08:22.981Z,14.60
2022-09-10T01:10:57.688Z,14.50
2022-09-10T01:13:35.941Z,14.50
2022-09-10T01:16:10.930Z,14.60
2022-09-10T01:18:47.569Z,14.40
2022-09-10T01:21:24.278Z,14.40
2022-09-10T01:24:27.418Z,14.40
2022-09-10T01:27:38.368Z,14.50
2022-09-10T01:30:14.836Z,14.50
2022-09-10T01:32:55.322Z,14.60
2022-09-10T01:35:30.574Z,14.50
2022-09-10T01:38:04.777Z,14.50
2022-09-10T01:40:36.393Z,14.50
2022-09-10T01:43:09.129Z,14.60
2022-09-10T01:45:44.020Z,14.60
2022-09-10T01:51:20.743Z,14.60
2022-09-10T01:54:06.122Z,14.60
2022-09-10T01:56:39.765Z,14.60
2022-09-10T01:59:16.310Z,14.50
2022-09-10T02:01:50.582Z,14.50
2022-09-10T02:04:23.592Z,14.50
2022-09-10T02:06:54.736Z,14.60
2022-09-10T02:09:26.089Z,14.60
2022-09-10T02:11:57.547Z,14.60
2022-09-10T02:14:28.518Z,14.60
2022-09-10T02:17:01.269Z,14.50
2022-09-10T02:19:31.845Z,14.50
2022-09-10T02:22:02.680Z,14.50
2022-09-10T02:24:33.237Z,14.40
2022-09-10T02:27:03.935Z,14.50
2022-09-10T02:29:35.281Z,14.70
2022-09-10T02:32:06.832Z,14.90
2022-09-10T02:34:38.106Z,14.80
2022-09-10T02:37:08.606Z,14.70
2022-09-10T02:39:40.287Z,14.60
2022-09-10T02:42:10.954Z,14.50
2022-09-10T02:44:41.459Z,14.40
2022-09-10T02:47:12.734Z,14.40
2022-09-10T02:49:43.310Z,14.40
2022-09-10T02:52:13.894Z,14.50
2022-09-10T02:54:44.585Z,14.40
2022-09-10T02:57:15.100Z,14.40
2022-09-10T02:59:45.677Z,14.40
2022-09-10T03:02:16.266Z,14.40
2022-09-10T03:04:47.043Z,14.30
2022-09-10T03:07:19.105Z,14.30
2022-09-10T03:09:49.840Z,14.20
2022-09-10T03:12:21.736Z,14.20
2022-09-10T03:14:53.700Z,14.10
2022-09-10T03:17:24.271Z,14.20
2022-09-10T03:19:54.835Z,14.20
2022-09-10T03:22:25.375Z,14.20
2022-09-10T03:24:56.136Z,14.10
2022-09-10T03:27:26.982Z,14.20
2022-09-10T03:29:57.600Z,14.20
2022-09-10T03:32:28.285Z,14.10
2022-09-10T03:34:59.482Z,14.10
2022-09-10T03:37:31.493Z,14.20
2022-09-10T03:40:02.186Z,14.20
2022-09-10T03:42:32.723Z,14.10
2022-09-10T03:45:03.405Z,14.10
2022-09-10T03:47:33.906Z,14.20
2022-09-10T03:50:04.883Z,14.10
2022-09-10T03:52:35.800Z,14.10
2022-09-10T03:55:08.177Z,14.20
2022-09-10T03:57:39.608Z,14.10
2022-09-10T04:00:12.830Z,14.10
2022-09-10T04:02:44.874Z,14.10
2022-09-10T04:05:15.558Z,14.20
2022-09-10T04:07:46.368Z,14.20
2022-09-10T04:10:17.351Z,14.10
2022-09-10T04:12:48.989Z,14.10
2022-09-10T04:15:19.929Z,14.10
2022-09-10T04:17:52.198Z,14.20
2022-09-10T04:20:24.721Z,14.20
2022-09-10T04:22:56.825Z,14.20
2022-09-10T04:25:27.534Z,14.20
2022-09-10T04:27:58.258Z,14.20
2022-09-10T04:30:29.000Z,14.10
2022-09-10T04:32:59.884Z,14.10
2022-09-10T04:35:31.016Z,14.10
2022-09-10T04:38:01.755Z,14.10
2022-09-10T04:40:32.816Z,14.20
2022-09-10T04:43:04.569Z,14.30
2022-09-10T04:45:35.220Z,14.30
2022-09-10T04:48:07.305Z,14.30
2022-09-10T04:50:54.045Z,14.40
2022-09-10T04:53:12.561Z,14.40
2022-09-10T04:55:45.821Z,14.40
2022-09-10T04:58:16.766Z,14.50
2022-09-10T05:00:47.817Z,14.50
2022-09-10T05:03:18.579Z,14.60
2022-09-10T05:05:49.212Z,15.00
2022-09-10T05:08:20.048Z,15.30
2022-09-10T05:10:50.733Z,15.30
2022-09-10T05:13:21.346Z,15.10
2022-09-10T05:15:51.934Z,15.00
2022-09-10T05:18:22.569Z,14.80
2022-09-10T05:20:53.505Z,14.70
2022-09-10T05:23:24.504Z,14.60
2022-09-10T05:25:56.907Z,14.70
2022-09-10T05:28:27.883Z,14.80
2022-09-10T05:30:58.551Z,14.80
2022-09-10T05:33:29.146Z,14.80
2022-09-10T05:35:59.743Z,14.90
2022-09-10T05:38:30.573Z,14.80
2022-09-10T05:41:01.276Z,14.80
2022-09-10T05:43:32.179Z,14.80
2022-09-10T05:46:02.812Z,14.80
2022-09-10T05:48:37.618Z,14.90
2022-09-10T05:51:07.249Z,15.00
2022-09-10T05:53:38.325Z,15.00
2022-09-10T05:56:09.563Z,15.20
2022-09-10T05:58:40.378Z,15.20
2022-09-10T06:01:11.443Z,15.20
2022-09-10T06:03:42.533Z,15.20
2022-09-10T06:06:13.270Z,15.30
2022-09-10T06:08:43.870Z,15.40
2022-09-10T06:11:14.725Z,15.60
2022-09-10T06:13:45.372Z,15.80
2022-09-10T06:16:17.002Z,15.90
2022-09-10T06:18:47.750Z,16.10
2022-09-10T06:21:20.350Z,16.20
2022-09-10T06:23:54.844Z,16.40
2022-09-10T06:26:44.199Z,16.60
2022-09-10T06:29:15.262Z,16.80
2022-09-10T06:31:45.991Z,17.00
2022-09-10T06:34:19.296Z,17.00
2022-09-10T06:36:51.613Z,17.00
2022-09-10T06:39:22.207Z,17.10
2022-09-10T06:41:53.444Z,17.20
2022-09-10T06:44:24.114Z,17.30
2022-09-10T06:49:29.752Z,17.30
2022-09-10T06:52:01.719Z,17.40
2022-09-10T06:57:12.000Z,17.40
2022-09-10T06:59:44.163Z,17.50
2022-09-10T07:02:15.945Z,17.50
2022-09-10T07:04:46.700Z,17.50
2022-09-10T07:07:17.648Z,17.60
2022-09-10T07:09:48.269Z,17.50
2022-09-10T07:12:19.014Z,17.40
2022-09-10T07:14:49.603Z,17.40
2022-09-10T07:17:21.154Z,17.30
2022-09-10T07:19:52.794Z,17.20
2022-09-10T07:22:23.408Z,17.30
2022-09-10T07:24:55.424Z,17.10
2022-09-10T07:27:26.233Z,17.20
2022-09-10T07:29:57.552Z,17.20
2022-09-10T07:32:29.771Z,17.40
2022-09-10T07:35:00.734Z,17.50
2022-09-10T07:37:31.652Z,17.50
2022-09-10T07:40:04.260Z,17.70
2022-09-10T07:42:36.043Z,17.80
2022-09-10T07:45:08.153Z,18.00
2022-09-10T07:47:38.779Z,18.00
2022-09-10T07:50:10.975Z,18.10
2022-09-10T07:55:19.528Z,18.30
2022-09-10T07:57:50.710Z,18.40
2022-09-10T08:00:21.749Z,18.50
2022-09-10T08:02:52.393Z,18.80
2022-09-10T08:05:24.512Z,19.00
2022-09-10T08:07:56.119Z,19.00
2022-09-10T08:10:26.942Z,19.20
2022-09-10T08:12:57.602Z,19.10
2022-09-10T08:15:28.386Z,18.80
2022-09-10T08:17:59.926Z,19.10
2022-09-10T08:20:33.204Z,19.20
2022-09-10T08:23:03.893Z,19.40
2022-09-10T08:25:35.021Z,19.50
2022-09-10T08:28:05.700Z,19.50
2022-09-10T08:30:36.498Z,19.60
2022-09-10T08:35:44.075Z,19.70
2022-09-10T08:38:14.652Z,19.30
2022-09-10T08:40:46.725Z,19.10
2022-09-10T08:43:18.729Z,19.10
2022-09-10T08:45:52.319Z,19.20
2022-09-10T08:48:25.154Z,19.40
2022-09-10T08:53:42.158Z,19.40
2022-09-10T08:56:15.792Z,19.30
2022-09-10T08:58:49.572Z,19.80
2022-09-10T09:01:25.264Z,19.70
2022-09-10T09:03:58.268Z,20.20
2022-09-10T09:06:33.733Z,19.60
2022-09-10T09:09:12.292Z,20.10
2022-09-10T09:12:01.933Z,20.00
2022-09-10T09:14:46.330Z,20.20
2022-09-10T09:17:39.130Z,20.10
2022-09-10T09:20:18.315Z,20.70
2022-09-10T09:22:54.132Z,21.10
2022-09-10T09:25:27.979Z,21.10
2022-09-10T09:27:59.269Z,21.10
2022-09-10T09:30:33.079Z,20.90
2022-09-10T09:33:09.107Z,20.70
2022-09-10T09:35:42.632Z,20.50
2022-09-10T09:38:19.671Z,20.40
2022-09-10T09:43:35.454Z,19.70
2022-09-10T09:48:54.306Z,20.60
2022-09-10T09:51:25.331Z,21.40
2022-09-10T09:54:25.775Z,20.90
2022-09-10T09:56:35.742Z,20.90
2022-09-10T09:59:15.161Z,21.00
2022-09-10T10:01:46.122Z,21.10
2022-09-10T10:04:24.498Z,21.20
2022-09-10T10:07:00.151Z,21.40
2022-09-10T10:09:33.600Z,21.30
2022-09-10T10:12:06.042Z,21.60
2022-09-10T10:14:41.558Z,21.60
2022-09-10T10:17:31.153Z,22.20
2022-09-10T10:20:09.047Z,23.10
2022-09-10T10:22:41.243Z,22.50
2022-09-10T10:28:28.865Z,20.90
2022-09-10T10:31:02.073Z,20.20
2022-09-10T10:33:35.585Z,20.20
2022-09-10T10:36:20.078Z,20.30
2022-09-10T10:38:55.177Z,20.60
2022-09-10T10:41:49.560Z,20.60
2022-09-10T10:44:32.283Z,20.50
2022-09-10T10:47:11.775Z,20.40
2022-09-10T10:49:50.083Z,20.40
2022-09-10T10:52:24.761Z,20.70
2022-09-10T10:55:06.352Z,21.10
2022-09-10T10:57:43.871Z,21.20
2022-09-10T11:00:19.157Z,21.50
2022-09-10T11:05:31.316Z,22.20
2022-09-10T11:08:06.600Z,22.60
2022-09-10T11:13:20.118Z,22.60
2022-09-10T11:15:53.727Z,22.80
2022-09-10T11:18:28.623Z,22.70
2022-09-10T11:21:03.482Z,22.70
2022-09-10T11:23:37.133Z,22.50
2022-09-10T11:26:12.371Z,23.10
2022-09-10T11:28:47.317Z,22.50
2022-09-10T11:31:22.123Z,22.60
2022-09-10T11:33:57.412Z,23.30
2022-09-10T11:36:31.604Z,23.90
2022-09-10T11:39:10.561Z,24.70
2022-09-10T11:41:44.225Z,24.70
2022-09-10T11:44:42.889Z,24.50
2022-09-10T11:47:17.507Z,23.80
2022-09-10T11:52:31.190Z,23.40
2022-09-10T11:55:03.774Z,23.00
2022-09-10T11:57:40.151Z,22.40
2022-09-10T12:00:17.369Z,21.90
2022-09-10T12:03:06.186Z,22.30
2022-09-10T12:05:42.496Z,23.30
2022-09-10T12:08:17.679Z,24.10
2022-09-10T12:13:32.639Z,24.20
2022-09-10T12:16:08.532Z,25.00
2022-09-10T12:18:43.042Z,23.90
2022-09-10T12:21:22.604Z,23.20
2022-09-10T12:23:55.432Z,23.00
2022-09-10T12:26:27.541Z,23.00
2022-09-10T12:29:08.232Z,23.10
2022-09-10T12:32:35.567Z,22.80
2022-09-10T12:35:51.410Z,22.50
2022-09-10T12:38:57.977Z,23.10
2022-09-10T12:41:57.704Z,24.20
2022-09-10T12:44:49.768Z,24.60
2022-09-10T12:47:42.991Z,25.20
2022-09-10T12:50:37.024Z,25.30
2022-09-10T12:53:55.296Z,24.60
2022-09-10T12:57:08.059Z,23.60
2022-09-10T13:00:02.655Z,22.80
2022-09-10T13:02:40.480Z,22.60
2022-09-10T13:05:27.017Z,22.50
2022-09-10T13:08:09.313Z,22.70
2022-09-10T13:10:41.665Z,23.40
2022-09-10T13:13:23.196Z,24.20
2022-09-10T13:15:55.875Z,24.30
2022-09-10T13:18:31.896Z,24.20
2022-09-10T13:21:24.132Z,24.40
2022-09-10T13:23:55.963Z,25.00
2022-09-10T13:26:52.763Z,25.30
2022-09-10T13:29:36.172Z,25.90
2022-09-10T13:32:14.512Z,26.20
2022-09-10T13:35:20.177Z,26.00
2022-09-10T13:38:22.843Z,26.40
2022-09-10T13:41:29.680Z,26.00
2022-09-10T13:47:13.324Z,26.50
2022-09-10T13:49:49.260Z,26.70
2022-09-10T13:52:22.786Z,26.80
2022-09-10T13:54:56.653Z,26.60
2022-09-10T13:57:31.644Z,26.30
2022-09-10T14:00:07.471Z,26.30
2022-09-10T14:02:45.930Z,26.60
2022-09-10T14:05:29.123Z,26.30
2022-09-10T14:08:03.070Z,26.60
2022-09-10T14:10:36.040Z,26.40
2022-09-10T14:13:07.971Z,26.10
2022-09-10T14:18:26.364Z,23.70
2022-09-10T14:20:57.367Z,23.10
2022-09-10T14:23:30.094Z,23.80
2022-09-10T14:26:15.616Z,24.50
2022-09-10T14:28:53.969Z,25.00
2022-09-10T14:31:38.457Z,25.60
2022-09-10T14:34:33.529Z,26.10
2022-09-10T14:37:06.299Z,25.30
2022-09-10T14:42:25.275Z,26.20
2022-09-10T14:44:56.424Z,25.90
2022-09-10T14:47:33.406Z,26.00
2022-09-10T14:50:30.801Z,25.90
2022-09-10T14:53:01.891Z,25.90
2022-09-10T14:55:34.181Z,26.50
2022-09-10T14:58:06.549Z,26.40
2022-09-10T15:03:21.481Z,27.00
2022-09-10T15:05:52.184Z,26.00
2022-09-10T15:08:22.704Z,24.90
2022-09-10T15:10:54.620Z,24.30
2022-09-10T15:13:25.324Z,23.80
2022-09-10T15:15:56.236Z,24.70
2022-09-10T15:18:26.898Z,25.10
2022-09-10T15:20:57.631Z,24.90
2022-09-10T15:23:28.885Z,25.40
2022-09-10T15:26:01.261Z,25.20
2022-09-10T15:31:11.138Z,25.80
2022-09-10T15:33:43.795Z,25.10
2022-09-10T15:36:14.651Z,23.90
2022-09-10T15:38:45.218Z,23.50
2022-09-10T15:41:17.136Z,23.00
2022-09-10T15:43:48.344Z,22.70
2022-09-10T15:46:21.082Z,22.90
2022-09-10T15:48:51.742Z,22.90
2022-09-10T15:51:24.406Z,22.80
2022-09-10T15:53:55.960Z,22.80
2022-09-10T15:56:27.145Z,22.80
2022-09-10T15:58:59.400Z,22.50
2022-09-10T16:01:46.316Z,22.50
2022-09-10T16:04:16.655Z,22.10
2022-09-10T16:06:47.411Z,21.70
2022-09-10T16:09:18.249Z,21.20
2022-09-10T16:11:50.033Z,21.50
2022-09-10T16:14:39.846Z,21.50
2022-09-10T16:17:11.289Z,21.30
2022-09-10T16:19:42.100Z,21.10
2022-09-10T16:22:14.097Z,21.20
2022-09-10T16:24:45.114Z,21.10
2022-09-10T16:27:16.350Z,20.80
2022-09-10T16:29:47.536Z,20.80
2022-09-10T16:32:18.152Z,20.80
2022-09-10T16:34:48.889Z,20.70
2022-09-10T16:37:19.508Z,20.40
2022-09-10T16:39:50.188Z,20.20
2022-09-10T16:42:20.811Z,20.10
2022-09-10T16:44:51.409Z,20.20
2022-09-10T16:47:22.757Z,20.10
2022-09-10T16:49:53.827Z,20.00
2022-09-10T16:52:24.740Z,19.80
2022-09-10T16:54:57.000Z,19.70
2022-09-10T16:57:27.587Z,19.70
2022-09-10T16:59:58.625Z,19.60
2022-09-10T17:02:31.051Z,19.50
2022-09-10T17:05:01.801Z,19.50
2022-09-10T17:07:32.709Z,19.50
2022-09-10T17:10:03.335Z,19.50
2022-09-10T17:12:33.962Z,19.50
2022-09-10T17:15:04.859Z,19.50
2022-09-10T17:17:35.649Z,19.40
2022-09-10T17:20:07.700Z,19.30
2022-09-10T17:22:38.476Z,19.30
2022-09-10T17:25:12.219Z,19.20
2022-09-10T17:27:42.856Z,19.10
2022-09-10T17:30:14.278Z,19.00
2022-09-10T17:32:44.989Z,18.90
2022-09-10T17:35:15.715Z,18.80
2022-09-10T17:37:46.764Z,18.70
2022-09-10T17:40:18.083Z,18.60
2022-09-10T17:42:50.780Z,18.50
2022-09-10T17:45:40.853Z,18.40
2022-09-10T17:48:11.528Z,18.40
2022-09-10T17:50:48.783Z,18.20
2022-09-10T17:53:20.504Z,18.20
2022-09-10T17:55:51.101Z,18.10
2022-09-10T17:58:22.606Z,18.00
2022-09-10T18:00:54.769Z,17.90
2022-09-10T18:03:25.525Z,17.80
2022-09-10T18:05:57.898Z,17.70
2022-09-10T18:08:28.561Z,17.70
2022-09-10T18:11:05.915Z,17.60
2022-09-10T18:13:37.237Z,17.50
2022-09-10T18:16:09.946Z,17.50
2022-09-10T18:18:40.930Z,17.40
2022-09-10T18:21:20.356Z,17.30
2022-09-10T18:23:54.774Z,17.20
2022-09-10T18:26:27.428Z,17.10
2022-09-10T18:29:00.827Z,17.00
2022-09-10T18:31:34.383Z,17.00
2022-09-10T18:36:44.620Z,16.90
2022-09-10T18:39:15.991Z,16.80
2022-09-10T18:41:46.702Z,16.80
2022-09-10T18:46:57.004Z,16.80
2022-09-10T18:49:28.050Z,16.70
2022-09-10T18:51:59.437Z,16.70
2022-09-10T18:54:30.190Z,16.50
2022-09-10T18:57:03.286Z,16.60
2022-09-10T18:59:34.662Z,16.50
2022-09-10T19:02:06.722Z,16.60
2022-09-10T19:04:54.416Z,16.50
2022-09-10T19:07:10.283Z,16.50
2022-09-10T19:09:41.293Z,16.30
2022-09-10T19:12:16.269Z,16.20
2022-09-10T19:14:46.223Z,16.10
2022-09-10T19:17:18.507Z,16.00
2022-09-10T19:19:50.444Z,15.90
2022-09-10T19:22:21.101Z,15.80
2022-09-10T19:24:55.291Z,15.80
2022-09-10T19:27:25.259Z,15.70
2022-09-10T19:29:56.035Z,15.70
2022-09-10T19:32:26.772Z,15.60
2022-09-10T19:34:57.848Z,15.50
2022-09-10T19:37:28.956Z,15.50
2022-09-10T19:40:00.306Z,15.40
2022-09-10T19:42:30.948Z,15.20
2022-09-10T19:45:02.806Z,15.20
2022-09-10T19:47:34.377Z,15.10
2022-09-10T19:50:06.902Z,15.20
2022-09-10T19:52:37.739Z,15.10
2022-09-10T19:55:13.217Z,15.20
2022-09-10T19:57:48.532Z,15.20
2022-09-10T20:00:45.317Z,15.20
2022-09-10T20:02:54.085Z,15.20
2022-09-10T20:05:27.432Z,15.20
2022-09-10T20:07:58.281Z,15.30
2022-09-10T20:10:29.170Z,15.30
2022-09-10T20:12:59.883Z,15.40
2022-09-10T20:15:31.951Z,15.30
2022-09-10T20:18:04.256Z,15.30
2022-09-10T20:20:36.138Z,15.40
2022-09-10T20:23:08.700Z,15.30
2022-09-10T20:25:39.868Z,15.30
2022-09-10T20:28:12.410Z,15.20
2022-09-10T20:30:44.993Z,15.30
2022-09-10T20:33:18.567Z,15.40
2022-09-10T20:38:26.829Z,15.40
2022-09-10T20:40:57.537Z,15.40
2022-09-10T20:43:28.168Z,15.30
2022-09-10T20:45:59.087Z,15.20
2022-09-10T20:48:31.695Z,15.20
2022-09-10T20:51:03.071Z,15.20
2022-09-10T20:53:37.273Z,15.20
2022-09-10T20:56:10.428Z,15.20
2022-09-10T20:58:42.184Z,15.20
2022-09-10T21:01:16.624Z,15.10
2022-09-10T21:03:48.254Z,15.10
2022-09-10T21:06:20.688Z,15.10
2022-09-10T21:08:51.479Z,15.00
2022-09-10T21:11:24.232Z,15.00
2022-09-10T21:13:56.285Z,15.10
2022-09-10T21:16:28.919Z,15.00
2022-09-10T21:19:01.967Z,15.00
2022-09-10T21:21:34.757Z,14.90
2022-09-10T21:24:07.990Z,14.80
2022-09-10T21:26:40.774Z,14.60
2022-09-10T21:29:14.523Z,14.50
2022-09-10T21:31:46.240Z,14.50
2022-09-10T21:34:17.524Z,14.50
2022-09-10T21:36:48.816Z,14.50
2022-09-10T21:39:20.043Z,14.60
2022-09-10T21:41:51.765Z,14.70
2022-09-10T21:44:25.162Z,14.70
2022-09-10T21:46:56.158Z,14.60
2022-09-10T21:49:27.164Z,14.50
2022-09-10T21:51:58.344Z,14.50
2022-09-10T21:54:29.051Z,14.30
2022-09-10T21:56:59.547Z,14.30
2022-09-10T21:59:30.154Z,14.20
2022-09-10T22:02:00.846Z,14.10
2022-09-10T22:04:31.569Z,14.10
2022-09-10T22:07:02.568Z,14.00
2022-09-10T22:09:33.938Z,14.00
2022-09-10T22:12:05.060Z,14.00
2022-09-10T22:14:35.946Z,13.90
2022-09-10T22:17:06.712Z,13.90
2022-09-10T22:19:37.262Z,13.70
2022-09-10T22:22:07.844Z,13.80
2022-09-10T22:24:38.386Z,13.70
2022-09-10T22:27:09.334Z,13.80
2022-09-10T22:29:40.063Z,13.80
2022-09-10T22:32:10.794Z,13.80
2022-09-10T22:34:41.314Z,13.90
2022-09-10T22:37:11.880Z,14.00
2022-09-10T22:39:42.623Z,13.90
2022-09-10T22:42:13.242Z,13.90
2022-09-10T22:44:43.869Z,13.90
2022-09-10T22:47:14.424Z,14.00
2022-09-10T22:49:46.490Z,14.00
2022-09-10T22:52:17.025Z,13.90
2022-09-10T22:54:47.552Z,13.80
2022-09-10T22:57:18.289Z,13.70
2022-09-10T22:59:48.816Z,13.60
2022-09-10T23:02:19.460Z,13.40
2022-09-10T23:04:51.468Z,13.40
2022-09-10T23:07:21.953Z,13.40
2022-09-10T23:09:52.508Z,13.30
2022-09-10T23:12:23.060Z,13.30
2022-09-10T23:14:53.631Z,13.40
2022-09-10T23:17:24.232Z,13.30
2022-09-10T23:19:54.842Z,13.20
2022-09-10T23:25:03.471Z,13.30
2022-09-10T23:27:34.008Z,13.10
2022-09-10T23:30:06.423Z,13.00
2022-09-10T23:32:36.935Z,13.10
2022-09-10T23:35:10.265Z,13.30
2022-09-10T23:37:40.829Z,13.20
2022-09-10T23:40:14.178Z,13.20
2022-09-10T23:42:44.757Z,13.20
2022-09-10T23:45:15.335Z,13.20
2022-09-10T23:47:46.971Z,13.10
2022-09-10T23:50:17.907Z,13.00
2022-09-10T23:52:48.445Z,12.90
2022-09-10T23:55:19.707Z,12.90
2022-09-10T23:57:50.685Z,12.80
